sensor_id;sensor_type;location;lat;lon;timestamp;P1;durP1;ratioP1;P2;durP2;ratioP2
29416;SDS011;28421;51.030;4.006;2022-07-04T00:00:52;5.50;;;1.67;;
29416;SDS011;28421;51.030;4.006;2022-07-04T00:03:18;4.78;;;1.38;;
29416;SDS011;28421;51.030;4.006;2022-07-04T00:05:44;4.70;;;1.10;;
29416;SDS011;28421;51.030;4.006;2022-07-04T00:08:10;2.47;;;1.10;;
29416;SDS011;28421;51.030;4.006;2022-07-04T00:10:35;2.35;;;1.45;;
29416;SDS011;28421;51.030;4.006;2022-07-04T00:13:01;1.60;;;1.13;;
29416;SDS011;28421;51.030;4.006;2022-07-04T00:15:27;2.33;;;1.45;;
29416;SDS011;28421;51.030;4.006;2022-07-04T00:17:53;1.55;;;1.00;;
29416;SDS011;28421;51.030;4.006;2022-07-04T00:20:19;2.35;;;1.38;;
29416;SDS011;28421;51.030;4.006;2022-07-04T00:22:45;3.85;;;1.27;;
29416;SDS011;28421;51.030;4.006;2022-07-04T00:25:11;2.42;;;1.50;;
29416;SDS011;28421;51.030;4.006;2022-07-04T00:27:36;3.22;;;1.48;;
29416;SDS011;28421;51.030;4.006;2022-07-04T00:30:03;0.90;;;0.90;;
29416;SDS011;28421;51.030;4.006;2022-07-04T00:32:30;1.67;;;1.23;;
29416;SDS011;28421;51.030;4.006;2022-07-04T00:34:56;0.70;;;0.70;;
29416;SDS011;28421;51.030;4.006;2022-07-04T00:37:22;2.53;;;0.95;;
29416;SDS011;28421;51.030;4.006;2022-07-04T00:39:48;3.67;;;1.23;;
29416;SDS011;28421;51.030;4.006;2022-07-04T00:42:13;2.38;;;1.13;;
29416;SDS011;28421;51.030;4.006;2022-07-04T00:44:39;2.53;;;1.50;;
29416;SDS011;28421;51.030;4.006;2022-07-04T00:47:05;1.52;;;0.98;;
29416;SDS011;28421;51.030;4.006;2022-07-04T00:49:32;2.50;;;1.33;;
29416;SDS011;28421;51.030;4.006;2022-07-04T00:51:58;2.08;;;1.20;;
29416;SDS011;28421;51.030;4.006;2022-07-04T00:54:26;2.17;;;1.20;;
29416;SDS011;28421;51.030;4.006;2022-07-04T00:56:57;3.67;;;1.10;;
29416;SDS011;28421;51.030;4.006;2022-07-04T00:59:24;1.95;;;1.35;;
29416;SDS011;28421;51.030;4.006;2022-07-04T01:01:50;3.33;;;1.13;;
29416;SDS011;28421;51.030;4.006;2022-07-04T01:04:15;2.65;;;1.30;;
29416;SDS011;28421;51.030;4.006;2022-07-04T01:06:42;2.30;;;1.88;;
29416;SDS011;28421;51.030;4.006;2022-07-04T01:09:08;1.92;;;1.50;;
29416;SDS011;28421;51.030;4.006;2022-07-04T01:11:34;2.20;;;1.52;;
29416;SDS011;28421;51.030;4.006;2022-07-04T01:14:00;4.55;;;2.00;;
29416;SDS011;28421;51.030;4.006;2022-07-04T01:16:26;3.97;;;1.35;;
29416;SDS011;28421;51.030;4.006;2022-07-04T01:18:53;1.60;;;1.50;;
29416;SDS011;28421;51.030;4.006;2022-07-04T01:21:20;8.15;;;1.77;;
29416;SDS011;28421;51.030;4.006;2022-07-04T01:23:46;1.77;;;1.40;;
29416;SDS011;28421;51.030;4.006;2022-07-04T01:26:12;3.45;;;1.77;;
29416;SDS011;28421;51.030;4.006;2022-07-04T01:28:38;5.93;;;1.75;;
29416;SDS011;28421;51.030;4.006;2022-07-04T01:31:04;3.53;;;1.73;;
29416;SDS011;28421;51.030;4.006;2022-07-04T01:33:30;2.40;;;1.73;;
29416;SDS011;28421;51.030;4.006;2022-07-04T01:35:56;2.65;;;1.75;;
29416;SDS011;28421;51.030;4.006;2022-07-04T01:38:23;5.93;;;2.22;;
29416;SDS011;28421;51.030;4.006;2022-07-04T01:40:49;2.15;;;1.95;;
29416;SDS011;28421;51.030;4.006;2022-07-04T01:43:14;1.55;;;1.35;;
29416;SDS011;28421;51.030;4.006;2022-07-04T01:45:40;2.42;;;1.33;;
29416;SDS011;28421;51.030;4.006;2022-07-04T01:48:07;6.80;;;1.65;;
29416;SDS011;28421;51.030;4.006;2022-07-04T01:50:34;6.15;;;1.88;;
29416;SDS011;28421;51.030;4.006;2022-07-04T01:53:00;2.80;;;1.42;;
29416;SDS011;28421;51.030;4.006;2022-07-04T01:55:26;2.42;;;1.52;;
29416;SDS011;28421;51.030;4.006;2022-07-04T01:57:52;2.95;;;1.27;;
29416;SDS011;28421;51.030;4.006;2022-07-04T02:00:18;3.33;;;1.88;;
29416;SDS011;28421;51.030;4.006;2022-07-04T02:03:03;3.03;;;1.42;;
29416;SDS011;28421;51.030;4.006;2022-07-04T02:05:29;3.60;;;1.35;;
29416;SDS011;28421;51.030;4.006;2022-07-04T02:07:55;2.45;;;1.42;;
29416;SDS011;28421;51.030;4.006;2022-07-04T02:10:21;1.58;;;1.20;;
29416;SDS011;28421;51.030;4.006;2022-07-04T02:12:47;3.55;;;1.52;;
29416;SDS011;28421;51.030;4.006;2022-07-04T02:15:32;3.30;;;1.90;;
29416;SDS011;28421;51.030;4.006;2022-07-04T02:18:00;3.53;;;1.30;;
29416;SDS011;28421;51.030;4.006;2022-07-04T02:20:26;8.75;;;1.75;;
29416;SDS011;28421;51.030;4.006;2022-07-04T02:22:53;2.65;;;1.30;;
29416;SDS011;28421;51.030;4.006;2022-07-04T02:25:19;2.13;;;1.45;;
29416;SDS011;28421;51.030;4.006;2022-07-04T02:27:45;5.00;;;1.73;;
29416;SDS011;28421;51.030;4.006;2022-07-04T02:30:11;1.98;;;1.42;;
29416;SDS011;28421;51.030;4.006;2022-07-04T02:32:37;1.67;;;1.58;;
29416;SDS011;28421;51.030;4.006;2022-07-04T02:35:04;1.63;;;1.48;;
29416;SDS011;28421;51.030;4.006;2022-07-04T02:37:30;2.22;;;1.42;;
29416;SDS011;28421;51.030;4.006;2022-07-04T02:39:56;5.93;;;1.40;;
29416;SDS011;28421;51.030;4.006;2022-07-04T02:42:22;3.80;;;1.80;;
29416;SDS011;28421;51.030;4.006;2022-07-04T02:44:48;2.55;;;1.65;;
29416;SDS011;28421;51.030;4.006;2022-07-04T02:47:14;2.30;;;1.73;;
29416;SDS011;28421;51.030;4.006;2022-07-04T02:49:40;3.30;;;1.40;;
29416;SDS011;28421;51.030;4.006;2022-07-04T02:52:06;2.13;;;1.60;;
29416;SDS011;28421;51.030;4.006;2022-07-04T02:54:32;3.72;;;1.80;;
29416;SDS011;28421;51.030;4.006;2022-07-04T02:56:58;2.40;;;1.60;;
29416;SDS011;28421;51.030;4.006;2022-07-04T02:59:24;2.17;;;1.98;;
29416;SDS011;28421;51.030;4.006;2022-07-04T03:01:50;2.47;;;1.70;;
29416;SDS011;28421;51.030;4.006;2022-07-04T03:04:16;4.03;;;1.85;;
29416;SDS011;28421;51.030;4.006;2022-07-04T03:06:42;1.85;;;1.75;;
29416;SDS011;28421;51.030;4.006;2022-07-04T03:09:09;2.13;;;1.50;;
29416;SDS011;28421;51.030;4.006;2022-07-04T03:11:35;4.80;;;1.70;;
29416;SDS011;28421;51.030;4.006;2022-07-04T03:14:01;2.63;;;1.98;;
29416;SDS011;28421;51.030;4.006;2022-07-04T03:16:27;1.73;;;1.50;;
29416;SDS011;28421;51.030;4.006;2022-07-04T03:18:53;1.75;;;1.65;;
29416;SDS011;28421;51.030;4.006;2022-07-04T03:21:18;1.38;;;1.27;;
29416;SDS011;28421;51.030;4.006;2022-07-04T03:23:44;3.38;;;1.70;;
29416;SDS011;28421;51.030;4.006;2022-07-04T03:26:30;3.83;;;1.95;;
29416;SDS011;28421;51.030;4.006;2022-07-04T03:28:58;9.43;;;2.10;;
29416;SDS011;28421;51.030;4.006;2022-07-04T03:31:24;2.67;;;2.30;;
29416;SDS011;28421;51.030;4.006;2022-07-04T03:33:51;4.97;;;2.50;;
29416;SDS011;28421;51.030;4.006;2022-07-04T03:36:17;5.35;;;2.70;;
29416;SDS011;28421;51.030;4.006;2022-07-04T03:38:44;6.85;;;2.70;;
29416;SDS011;28421;51.030;4.006;2022-07-04T03:41:10;4.05;;;2.03;;
29416;SDS011;28421;51.030;4.006;2022-07-04T03:43:36;2.53;;;2.13;;
29416;SDS011;28421;51.030;4.006;2022-07-04T03:46:02;2.88;;;2.30;;
29416;SDS011;28421;51.030;4.006;2022-07-04T03:48:28;5.10;;;1.98;;
29416;SDS011;28421;51.030;4.006;2022-07-04T03:50:54;3.75;;;2.65;;
29416;SDS011;28421;51.030;4.006;2022-07-04T03:53:21;4.68;;;2.08;;
29416;SDS011;28421;51.030;4.006;2022-07-04T03:55:47;6.03;;;2.38;;
29416;SDS011;28421;51.030;4.006;2022-07-04T03:58:13;4.28;;;1.90;;
29416;SDS011;28421;51.030;4.006;2022-07-04T04:00:39;6.10;;;2.00;;
29416;SDS011;28421;51.030;4.006;2022-07-04T04:03:07;6.53;;;2.08;;
29416;SDS011;28421;51.030;4.006;2022-07-04T04:05:53;2.30;;;2.03;;
29416;SDS011;28421;51.030;4.006;2022-07-04T04:08:19;7.03;;;1.70;;
29416;SDS011;28421;51.030;4.006;2022-07-04T04:10:45;6.65;;;1.90;;
29416;SDS011;28421;51.030;4.006;2022-07-04T04:13:11;2.40;;;1.70;;
29416;SDS011;28421;51.030;4.006;2022-07-04T04:15:36;2.28;;;1.67;;
29416;SDS011;28421;51.030;4.006;2022-07-04T04:18:02;4.75;;;2.10;;
29416;SDS011;28421;51.030;4.006;2022-07-04T04:20:28;2.63;;;1.42;;
29416;SDS011;28421;51.030;4.006;2022-07-04T04:22:54;3.15;;;2.17;;
29416;SDS011;28421;51.030;4.006;2022-07-04T04:25:20;7.45;;;1.52;;
29416;SDS011;28421;51.030;4.006;2022-07-04T04:27:46;3.15;;;1.83;;
29416;SDS011;28421;51.030;4.006;2022-07-04T04:30:11;4.20;;;1.67;;
29416;SDS011;28421;51.030;4.006;2022-07-04T04:32:37;2.13;;;1.48;;
29416;SDS011;28421;51.030;4.006;2022-07-04T04:35:03;1.55;;;1.38;;
29416;SDS011;28421;51.030;4.006;2022-07-04T04:37:29;3.10;;;1.77;;
29416;SDS011;28421;51.030;4.006;2022-07-04T04:39:55;3.55;;;1.95;;
29416;SDS011;28421;51.030;4.006;2022-07-04T04:42:21;1.95;;;1.65;;
29416;SDS011;28421;51.030;4.006;2022-07-04T04:44:47;3.53;;;1.60;;
29416;SDS011;28421;51.030;4.006;2022-07-04T04:47:13;4.57;;;2.38;;
29416;SDS011;28421;51.030;4.006;2022-07-04T04:49:38;7.88;;;1.90;;
29416;SDS011;28421;51.030;4.006;2022-07-04T04:52:04;6.10;;;1.77;;
29416;SDS011;28421;51.030;4.006;2022-07-04T04:54:31;2.42;;;2.03;;
29416;SDS011;28421;51.030;4.006;2022-07-04T04:56:57;2.67;;;1.70;;
29416;SDS011;28421;51.030;4.006;2022-07-04T04:59:23;1.48;;;1.38;;
29416;SDS011;28421;51.030;4.006;2022-07-04T05:01:50;3.85;;;1.80;;
29416;SDS011;28421;51.030;4.006;2022-07-04T05:04:15;4.20;;;2.40;;
29416;SDS011;28421;51.030;4.006;2022-07-04T05:06:42;6.63;;;1.75;;
29416;SDS011;28421;51.030;4.006;2022-07-04T05:09:07;4.47;;;2.13;;
29416;SDS011;28421;51.030;4.006;2022-07-04T05:11:33;2.60;;;2.15;;
29416;SDS011;28421;51.030;4.006;2022-07-04T05:13:59;3.58;;;2.03;;
29416;SDS011;28421;51.030;4.006;2022-07-04T05:16:26;5.50;;;2.75;;
29416;SDS011;28421;51.030;4.006;2022-07-04T05:18:52;8.95;;;2.75;;
29416;SDS011;28421;51.030;4.006;2022-07-04T05:21:18;5.53;;;2.15;;
29416;SDS011;28421;51.030;4.006;2022-07-04T05:23:43;6.95;;;2.45;;
29416;SDS011;28421;51.030;4.006;2022-07-04T05:26:09;7.80;;;2.60;;
29416;SDS011;28421;51.030;4.006;2022-07-04T05:28:35;5.90;;;2.42;;
29416;SDS011;28421;51.030;4.006;2022-07-04T05:31:00;5.72;;;2.22;;
29416;SDS011;28421;51.030;4.006;2022-07-04T05:33:26;8.48;;;2.95;;
29416;SDS011;28421;51.030;4.006;2022-07-04T05:35:52;5.07;;;2.50;;
29416;SDS011;28421;51.030;4.006;2022-07-04T05:38:17;5.28;;;3.00;;
29416;SDS011;28421;51.030;4.006;2022-07-04T05:40:44;7.63;;;2.97;;
29416;SDS011;28421;51.030;4.006;2022-07-04T05:43:09;14.70;;;3.15;;
29416;SDS011;28421;51.030;4.006;2022-07-04T05:45:37;8.30;;;2.60;;
29416;SDS011;28421;51.030;4.006;2022-07-04T05:48:03;12.82;;;2.78;;
29416;SDS011;28421;51.030;4.006;2022-07-04T05:50:29;9.82;;;3.38;;
29416;SDS011;28421;51.030;4.006;2022-07-04T05:52:54;8.60;;;3.58;;
29416;SDS011;28421;51.030;4.006;2022-07-04T05:55:20;7.57;;;2.67;;
29416;SDS011;28421;51.030;4.006;2022-07-04T05:57:46;10.63;;;2.88;;
29416;SDS011;28421;51.030;4.006;2022-07-04T06:00:12;8.55;;;3.15;;
29416;SDS011;28421;51.030;4.006;2022-07-04T06:02:38;3.45;;;2.58;;
29416;SDS011;28421;51.030;4.006;2022-07-04T06:05:04;12.88;;;3.17;;
29416;SDS011;28421;51.030;4.006;2022-07-04T06:07:31;3.38;;;2.78;;
29416;SDS011;28421;51.030;4.006;2022-07-04T06:09:56;13.50;;;3.78;;
29416;SDS011;28421;51.030;4.006;2022-07-04T06:12:22;9.77;;;3.22;;
29416;SDS011;28421;51.030;4.006;2022-07-04T06:14:48;8.77;;;3.55;;
29416;SDS011;28421;51.030;4.006;2022-07-04T06:17:13;14.50;;;3.65;;
29416;SDS011;28421;51.030;4.006;2022-07-04T06:19:39;10.80;;;3.28;;
29416;SDS011;28421;51.030;4.006;2022-07-04T06:22:05;12.30;;;3.97;;
29416;SDS011;28421;51.030;4.006;2022-07-04T06:24:30;12.80;;;3.65;;
29416;SDS011;28421;51.030;4.006;2022-07-04T06:26:56;17.98;;;5.75;;
29416;SDS011;28421;51.030;4.006;2022-07-04T06:29:22;15.85;;;4.97;;
29416;SDS011;28421;51.030;4.006;2022-07-04T06:31:48;9.93;;;4.50;;
29416;SDS011;28421;51.030;4.006;2022-07-04T06:34:13;31.15;;;7.45;;
29416;SDS011;28421;51.030;4.006;2022-07-04T06:36:58;12.70;;;4.70;;
29416;SDS011;28421;51.030;4.006;2022-07-04T06:39:24;18.40;;;6.63;;
29416;SDS011;28421;51.030;4.006;2022-07-04T06:41:50;22.42;;;6.82;;
29416;SDS011;28421;51.030;4.006;2022-07-04T06:44:15;20.52;;;7.43;;
29416;SDS011;28421;51.030;4.006;2022-07-04T06:46:41;13.40;;;5.63;;
29416;SDS011;28421;51.030;4.006;2022-07-04T06:49:07;21.48;;;8.93;;
29416;SDS011;28421;51.030;4.006;2022-07-04T06:51:32;18.30;;;7.20;;
29416;SDS011;28421;51.030;4.006;2022-07-04T06:53:58;16.17;;;6.40;;
29416;SDS011;28421;51.030;4.006;2022-07-04T06:56:23;27.17;;;7.03;;
29416;SDS011;28421;51.030;4.006;2022-07-04T06:58:49;22.50;;;7.72;;
29416;SDS011;28421;51.030;4.006;2022-07-04T07:01:15;32.35;;;7.93;;
29416;SDS011;28421;51.030;4.006;2022-07-04T07:03:41;21.05;;;8.10;;
29416;SDS011;28421;51.030;4.006;2022-07-04T07:06:07;23.80;;;8.38;;
29416;SDS011;28421;51.030;4.006;2022-07-04T07:08:33;26.23;;;9.40;;
29416;SDS011;28421;51.030;4.006;2022-07-04T07:10:59;22.50;;;8.48;;
29416;SDS011;28421;51.030;4.006;2022-07-04T07:13:44;21.75;;;7.57;;
29416;SDS011;28421;51.030;4.006;2022-07-04T07:16:11;16.25;;;6.45;;
29416;SDS011;28421;51.030;4.006;2022-07-04T07:18:37;20.65;;;7.35;;
29416;SDS011;28421;51.030;4.006;2022-07-04T07:21:03;23.13;;;8.52;;
29416;SDS011;28421;51.030;4.006;2022-07-04T07:23:29;26.92;;;7.72;;
29416;SDS011;28421;51.030;4.006;2022-07-04T07:25:55;23.63;;;7.97;;
29416;SDS011;28421;51.030;4.006;2022-07-04T07:28:21;19.65;;;7.38;;
29416;SDS011;28421;51.030;4.006;2022-07-04T07:30:46;21.63;;;6.03;;
29416;SDS011;28421;51.030;4.006;2022-07-04T07:33:12;13.90;;;5.70;;
29416;SDS011;28421;51.030;4.006;2022-07-04T07:35:38;26.55;;;8.32;;
29416;SDS011;28421;51.030;4.006;2022-07-04T07:38:04;15.88;;;7.47;;
29416;SDS011;28421;51.030;4.006;2022-07-04T07:40:31;19.00;;;6.80;;
29416;SDS011;28421;51.030;4.006;2022-07-04T07:42:57;16.23;;;6.57;;
29416;SDS011;28421;51.030;4.006;2022-07-04T07:45:22;28.20;;;7.65;;
29416;SDS011;28421;51.030;4.006;2022-07-04T07:47:49;21.02;;;7.22;;
29416;SDS011;28421;51.030;4.006;2022-07-04T07:50:15;14.45;;;5.88;;
29416;SDS011;28421;51.030;4.006;2022-07-04T07:52:40;19.00;;;5.85;;
29416;SDS011;28421;51.030;4.006;2022-07-04T07:55:06;19.15;;;6.28;;
29416;SDS011;28421;51.030;4.006;2022-07-04T07:57:32;18.83;;;7.63;;
29416;SDS011;28421;51.030;4.006;2022-07-04T07:59:58;16.05;;;6.30;;
29416;SDS011;28421;51.030;4.006;2022-07-04T08:02:24;10.45;;;6.15;;
29416;SDS011;28421;51.030;4.006;2022-07-04T08:05:09;19.75;;;5.65;;
29416;SDS011;28421;51.030;4.006;2022-07-04T08:07:36;23.58;;;6.07;;
29416;SDS011;28421;51.030;4.006;2022-07-04T08:10:02;17.42;;;6.00;;
29416;SDS011;28421;51.030;4.006;2022-07-04T08:12:29;20.63;;;5.40;;
29416;SDS011;28421;51.030;4.006;2022-07-04T08:14:55;12.93;;;6.50;;
29416;SDS011;28421;51.030;4.006;2022-07-04T08:17:22;20.15;;;6.55;;
29416;SDS011;28421;51.030;4.006;2022-07-04T08:19:48;14.93;;;6.20;;
29416;SDS011;28421;51.030;4.006;2022-07-04T08:22:13;14.95;;;6.10;;
29416;SDS011;28421;51.030;4.006;2022-07-04T08:24:39;14.82;;;6.28;;
29416;SDS011;28421;51.030;4.006;2022-07-04T08:27:05;16.77;;;6.18;;
29416;SDS011;28421;51.030;4.006;2022-07-04T08:29:30;17.25;;;6.60;;
29416;SDS011;28421;51.030;4.006;2022-07-04T08:31:57;10.52;;;5.60;;
29416;SDS011;28421;51.030;4.006;2022-07-04T08:34:23;11.45;;;5.15;;
29416;SDS011;28421;51.030;4.006;2022-07-04T08:36:49;16.38;;;5.88;;
29416;SDS011;28421;51.030;4.006;2022-07-04T08:39:14;16.63;;;5.97;;
29416;SDS011;28421;51.030;4.006;2022-07-04T08:41:42;14.13;;;5.55;;
29416;SDS011;28421;51.030;4.006;2022-07-04T08:44:08;14.75;;;4.57;;
29416;SDS011;28421;51.030;4.006;2022-07-04T08:46:37;12.40;;;5.45;;
29416;SDS011;28421;51.030;4.006;2022-07-04T08:49:14;13.40;;;5.15;;
29416;SDS011;28421;51.030;4.006;2022-07-04T08:51:52;16.55;;;4.68;;
29416;SDS011;28421;51.030;4.006;2022-07-04T08:54:26;11.07;;;4.25;;
29416;SDS011;28421;51.030;4.006;2022-07-04T08:57:12;12.02;;;4.60;;
29416;SDS011;28421;51.030;4.006;2022-07-04T08:59:58;10.43;;;3.38;;
29416;SDS011;28421;51.030;4.006;2022-07-04T09:02:24;9.98;;;3.78;;
29416;SDS011;28421;51.030;4.006;2022-07-04T09:04:53;12.82;;;4.43;;
29416;SDS011;28421;51.030;4.006;2022-07-04T09:07:19;8.23;;;3.10;;
29416;SDS011;28421;51.030;4.006;2022-07-04T09:09:45;10.65;;;3.35;;
29416;SDS011;28421;51.030;4.006;2022-07-04T09:12:12;7.70;;;3.75;;
29416;SDS011;28421;51.030;4.006;2022-07-04T09:14:38;20.08;;;3.38;;
29416;SDS011;28421;51.030;4.006;2022-07-04T09:17:05;14.68;;;3.67;;
29416;SDS011;28421;51.030;4.006;2022-07-04T09:19:31;8.50;;;2.90;;
29416;SDS011;28421;51.030;4.006;2022-07-04T09:22:01;14.18;;;3.35;;
29416;SDS011;28421;51.030;4.006;2022-07-04T09:24:48;7.30;;;3.08;;
29416;SDS011;28421;51.030;4.006;2022-07-04T09:27:37;12.15;;;2.65;;
29416;SDS011;28421;51.030;4.006;2022-07-04T09:30:05;5.18;;;2.45;;
29416;SDS011;28421;51.030;4.006;2022-07-04T09:32:35;7.10;;;2.35;;
29416;SDS011;28421;51.030;4.006;2022-07-04T09:35:12;9.23;;;2.88;;
29416;SDS011;28421;51.030;4.006;2022-07-04T09:37:44;5.72;;;2.60;;
29416;SDS011;28421;51.030;4.006;2022-07-04T09:40:20;6.07;;;2.85;;
29416;SDS011;28421;51.030;4.006;2022-07-04T09:42:54;9.80;;;2.90;;
29416;SDS011;28421;51.030;4.006;2022-07-04T09:45:21;10.10;;;2.20;;
29416;SDS011;28421;51.030;4.006;2022-07-04T09:47:49;13.70;;;3.17;;
29416;SDS011;28421;51.030;4.006;2022-07-04T09:50:21;8.85;;;2.45;;
29416;SDS011;28421;51.030;4.006;2022-07-04T09:55:27;4.43;;;1.95;;
29416;SDS011;28421;51.030;4.006;2022-07-04T09:57:59;6.45;;;1.90;;
29416;SDS011;28421;51.030;4.006;2022-07-04T10:00:27;7.70;;;2.25;;
29416;SDS011;28421;51.030;4.006;2022-07-04T10:03:15;5.90;;;1.45;;
29416;SDS011;28421;51.030;4.006;2022-07-04T10:06:08;5.68;;;1.90;;
29416;SDS011;28421;51.030;4.006;2022-07-04T10:08:36;5.32;;;2.80;;
29416;SDS011;28421;51.030;4.006;2022-07-04T10:11:03;4.78;;;1.58;;
29416;SDS011;28421;51.030;4.006;2022-07-04T10:13:30;3.38;;;1.70;;
29416;SDS011;28421;51.030;4.006;2022-07-04T10:15:56;9.35;;;2.00;;
29416;SDS011;28421;51.030;4.006;2022-07-04T10:18:22;9.85;;;3.83;;
29416;SDS011;28421;51.030;4.006;2022-07-04T10:20:50;10.15;;;3.05;;
29416;SDS011;28421;51.030;4.006;2022-07-04T10:23:17;8.85;;;2.50;;
29416;SDS011;28421;51.030;4.006;2022-07-04T10:25:47;6.47;;;1.65;;
29416;SDS011;28421;51.030;4.006;2022-07-04T10:28:14;4.78;;;1.95;;
29416;SDS011;28421;51.030;4.006;2022-07-04T10:30:41;4.45;;;2.03;;
29416;SDS011;28421;51.030;4.006;2022-07-04T10:33:09;4.45;;;1.95;;
29416;SDS011;28421;51.030;4.006;2022-07-04T10:38:53;4.40;;;1.70;;
29416;SDS011;28421;51.030;4.006;2022-07-04T10:41:21;2.40;;;1.40;;
29416;SDS011;28421;51.030;4.006;2022-07-04T10:46:24;3.92;;;1.20;;
29416;SDS011;28421;51.030;4.006;2022-07-04T10:48:54;2.90;;;1.27;;
29416;SDS011;28421;51.030;4.006;2022-07-04T10:54:16;7.57;;;2.13;;
29416;SDS011;28421;51.030;4.006;2022-07-04T11:01:50;3.45;;;1.30;;
29416;SDS011;28421;51.030;4.006;2022-07-04T11:07:14;4.72;;;1.40;;
29416;SDS011;28421;51.030;4.006;2022-07-04T11:09:41;2.70;;;1.13;;
29416;SDS011;28421;51.030;4.006;2022-07-04T11:12:08;2.90;;;1.25;;
29416;SDS011;28421;51.030;4.006;2022-07-04T11:17:15;3.78;;;1.30;;
29416;SDS011;28421;51.030;4.006;2022-07-04T11:19:45;5.90;;;1.65;;
29416;SDS011;28421;51.030;4.006;2022-07-04T11:22:12;2.40;;;1.27;;
29416;SDS011;28421;51.030;4.006;2022-07-04T11:24:47;1.65;;;0.77;;
29416;SDS011;28421;51.030;4.006;2022-07-04T11:27:13;6.63;;;1.58;;
29416;SDS011;28421;51.030;4.006;2022-07-04T11:29:48;6.43;;;1.50;;
29416;SDS011;28421;51.030;4.006;2022-07-04T11:32:18;3.53;;;1.45;;
29416;SDS011;28421;51.030;4.006;2022-07-04T11:34:44;7.60;;;1.63;;
29416;SDS011;28421;51.030;4.006;2022-07-04T11:37:11;3.85;;;1.27;;
29416;SDS011;28421;51.030;4.006;2022-07-04T11:39:37;5.70;;;1.40;;
29416;SDS011;28421;51.030;4.006;2022-07-04T11:42:03;4.30;;;1.38;;
29416;SDS011;28421;51.030;4.006;2022-07-04T11:44:47;4.10;;;1.35;;
29416;SDS011;28421;51.030;4.006;2022-07-04T11:47:39;3.55;;;1.50;;
29416;SDS011;28421;51.030;4.006;2022-07-04T11:50:10;4.72;;;1.42;;
29416;SDS011;28421;51.030;4.006;2022-07-04T11:55:05;4.65;;;1.77;;
29416;SDS011;28421;51.030;4.006;2022-07-04T11:57:39;3.67;;;1.38;;
29416;SDS011;28421;51.030;4.006;2022-07-04T12:00:10;1.60;;;1.25;;
29416;SDS011;28421;51.030;4.006;2022-07-04T12:02:38;1.60;;;0.80;;
29416;SDS011;28421;51.030;4.006;2022-07-04T12:05:05;4.63;;;1.30;;
29416;SDS011;28421;51.030;4.006;2022-07-04T12:07:33;4.18;;;1.13;;
29416;SDS011;28421;51.030;4.006;2022-07-04T12:10:17;3.42;;;1.27;;
29416;SDS011;28421;51.030;4.006;2022-07-04T12:12:54;1.70;;;0.90;;
29416;SDS011;28421;51.030;4.006;2022-07-04T12:15:21;9.25;;;1.42;;
29416;SDS011;28421;51.030;4.006;2022-07-04T12:17:49;2.65;;;0.80;;
29416;SDS011;28421;51.030;4.006;2022-07-04T12:20:20;3.88;;;1.20;;
29416;SDS011;28421;51.030;4.006;2022-07-04T12:22:50;1.23;;;0.70;;
29416;SDS011;28421;51.030;4.006;2022-07-04T12:25:34;2.25;;;1.40;;
29416;SDS011;28421;51.030;4.006;2022-07-04T12:28:05;4.95;;;1.30;;
29416;SDS011;28421;51.030;4.006;2022-07-04T12:30:55;4.55;;;1.30;;
29416;SDS011;28421;51.030;4.006;2022-07-04T12:33:25;4.00;;;1.83;;
29416;SDS011;28421;51.030;4.006;2022-07-04T12:35:54;2.97;;;1.25;;
29416;SDS011;28421;51.030;4.006;2022-07-04T12:41:01;1.98;;;1.08;;
29416;SDS011;28421;51.030;4.006;2022-07-04T12:46:07;7.30;;;1.52;;
29416;SDS011;28421;51.030;4.006;2022-07-04T12:48:39;4.60;;;1.17;;
29416;SDS011;28421;51.030;4.006;2022-07-04T12:53:47;4.30;;;1.38;;
29416;SDS011;28421;51.030;4.006;2022-07-04T12:58:58;2.80;;;1.17;;
29416;SDS011;28421;51.030;4.006;2022-07-04T13:01:25;5.93;;;1.83;;
29416;SDS011;28421;51.030;4.006;2022-07-04T13:03:51;9.30;;;1.38;;
29416;SDS011;28421;51.030;4.006;2022-07-04T13:06:17;3.95;;;1.35;;
29416;SDS011;28421;51.030;4.006;2022-07-04T13:08:42;9.85;;;1.58;;
29416;SDS011;28421;51.030;4.006;2022-07-04T13:11:08;4.90;;;1.85;;
29416;SDS011;28421;51.030;4.006;2022-07-04T13:13:52;2.33;;;1.05;;
29416;SDS011;28421;51.030;4.006;2022-07-04T13:16:18;4.43;;;1.48;;
29416;SDS011;28421;51.030;4.006;2022-07-04T13:18:44;1.48;;;1.02;;
29416;SDS011;28421;51.030;4.006;2022-07-04T13:21:09;2.90;;;1.63;;
29416;SDS011;28421;51.030;4.006;2022-07-04T13:23:35;1.58;;;1.05;;
29416;SDS011;28421;51.030;4.006;2022-07-04T13:26:02;2.72;;;1.10;;
29416;SDS011;28421;51.030;4.006;2022-07-04T13:28:28;4.13;;;1.17;;
29416;SDS011;28421;51.030;4.006;2022-07-04T13:30:54;2.25;;;1.23;;
29416;SDS011;28421;51.030;4.006;2022-07-04T13:33:20;2.40;;;0.98;;
29416;SDS011;28421;51.030;4.006;2022-07-04T13:35:46;2.55;;;0.82;;
29416;SDS011;28421;51.030;4.006;2022-07-04T13:38:12;2.38;;;1.08;;
29416;SDS011;28421;51.030;4.006;2022-07-04T13:40:42;3.25;;;1.15;;
29416;SDS011;28421;51.030;4.006;2022-07-04T13:43:08;1.75;;;1.10;;
29416;SDS011;28421;51.030;4.006;2022-07-04T13:45:35;8.38;;;1.00;;
29416;SDS011;28421;51.030;4.006;2022-07-04T13:48:01;3.58;;;0.98;;
29416;SDS011;28421;51.030;4.006;2022-07-04T13:50:27;1.83;;;1.10;;
29416;SDS011;28421;51.030;4.006;2022-07-04T13:52:53;4.13;;;1.45;;
29416;SDS011;28421;51.030;4.006;2022-07-04T13:55:18;3.53;;;1.38;;
29416;SDS011;28421;51.030;4.006;2022-07-04T13:57:45;8.85;;;1.30;;
29416;SDS011;28421;51.030;4.006;2022-07-04T14:00:11;6.03;;;1.38;;
29416;SDS011;28421;51.030;4.006;2022-07-04T14:02:36;4.95;;;1.38;;
29416;SDS011;28421;51.030;4.006;2022-07-04T14:05:02;5.55;;;1.25;;
29416;SDS011;28421;51.030;4.006;2022-07-04T14:07:28;1.13;;;0.88;;
29416;SDS011;28421;51.030;4.006;2022-07-04T14:09:54;1.52;;;0.75;;
29416;SDS011;28421;51.030;4.006;2022-07-04T14:12:20;2.80;;;1.13;;
29416;SDS011;28421;51.030;4.006;2022-07-04T14:14:45;3.78;;;1.27;;
29416;SDS011;28421;51.030;4.006;2022-07-04T14:17:11;4.78;;;1.00;;
29416;SDS011;28421;51.030;4.006;2022-07-04T14:19:37;3.17;;;1.17;;
29416;SDS011;28421;51.030;4.006;2022-07-04T14:22:03;3.80;;;1.40;;
29416;SDS011;28421;51.030;4.006;2022-07-04T14:24:29;2.97;;;1.27;;
29416;SDS011;28421;51.030;4.006;2022-07-04T14:26:55;5.60;;;0.90;;
29416;SDS011;28421;51.030;4.006;2022-07-04T14:29:20;1.20;;;0.90;;
29416;SDS011;28421;51.030;4.006;2022-07-04T14:31:46;2.10;;;0.88;;
29416;SDS011;28421;51.030;4.006;2022-07-04T14:34:13;5.68;;;1.13;;
29416;SDS011;28421;51.030;4.006;2022-07-04T14:36:39;5.47;;;1.23;;
29416;SDS011;28421;51.030;4.006;2022-07-04T14:39:06;1.90;;;0.82;;
29416;SDS011;28421;51.030;4.006;2022-07-04T14:41:32;3.28;;;0.80;;
29416;SDS011;28421;51.030;4.006;2022-07-04T14:43:58;4.22;;;1.40;;
29416;SDS011;28421;51.030;4.006;2022-07-04T14:46:24;3.17;;;0.90;;
29416;SDS011;28421;51.030;4.006;2022-07-04T14:48:50;4.15;;;0.93;;
29416;SDS011;28421;51.030;4.006;2022-07-04T14:51:15;4.85;;;1.05;;
29416;SDS011;28421;51.030;4.006;2022-07-04T14:53:42;1.80;;;1.13;;
29416;SDS011;28421;51.030;4.006;2022-07-04T14:56:08;4.30;;;1.30;;
29416;SDS011;28421;51.030;4.006;2022-07-04T14:58:34;2.40;;;1.15;;
29416;SDS011;28421;51.030;4.006;2022-07-04T15:00:59;1.85;;;1.20;;
29416;SDS011;28421;51.030;4.006;2022-07-04T15:03:25;5.65;;;1.20;;
29416;SDS011;28421;51.030;4.006;2022-07-04T15:05:51;3.10;;;1.23;;
29416;SDS011;28421;51.030;4.006;2022-07-04T15:08:17;7.80;;;1.00;;
29416;SDS011;28421;51.030;4.006;2022-07-04T15:10:43;1.95;;;1.15;;
29416;SDS011;28421;51.030;4.006;2022-07-04T15:13:09;1.38;;;0.82;;
29416;SDS011;28421;51.030;4.006;2022-07-04T15:15:34;8.52;;;1.63;;
29416;SDS011;28421;51.030;4.006;2022-07-04T15:18:01;9.98;;;1.52;;
29416;SDS011;28421;51.030;4.006;2022-07-04T15:20:27;2.92;;;1.00;;
29416;SDS011;28421;51.030;4.006;2022-07-04T15:25:56;3.15;;;0.90;;